sensor_id;sensor_type;location;lat;lon;timestamp;P1;durP1;ratioP1;P2;durP2;ratioP2
15342;SDS011;7771;48.478;8.936;2023-07-20T00:00:23;5.80;;;1.83;;
15342;SDS011;7771;48.478;8.936;2023-07-20T00:02:51;2.65;;;2.22;;
15342;SDS011;7771;48.478;8.936;2023-07-20T00:05:19;3.05;;;2.12;;
15342;SDS011;7771;48.478;8.936;2023-07-20T00:07:45;2.10;;;1.60;;
15342;SDS011;7771;48.478;8.936;2023-07-20T00:10:12;5.43;;;2.08;;
15342;SDS011;7771;48.478;8.936;2023-07-20T00:12:39;3.08;;;2.28;;
15342;SDS011;7771;48.478;8.936;2023-07-20T00:15:06;2.95;;;2.10;;
15342;SDS011;7771;48.478;8.936;2023-07-20T00:17:32;3.37;;;2.45;;
15342;SDS011;7771;48.478;8.936;2023-07-20T00:19:59;3.55;;;2.12;;
15342;SDS011;7771;48.478;8.936;2023-07-20T00:22:26;4.05;;;2.42;;
15342;SDS011;7771;48.478;8.936;2023-07-20T00:24:52;3.08;;;2.17;;
15342;SDS011;7771;48.478;8.936;2023-07-20T00:27:19;4.47;;;2.30;;
15342;SDS011;7771;48.478;8.936;2023-07-20T00:29:46;2.53;;;2.20;;
15342;SDS011;7771;48.478;8.936;2023-07-20T00:32:13;3.67;;;2.20;;
15342;SDS011;7771;48.478;8.936;2023-07-20T00:34:40;6.55;;;2.00;;
15342;SDS011;7771;48.478;8.936;2023-07-20T00:37:07;3.92;;;2.22;;
15342;SDS011;7771;48.478;8.936;2023-07-20T00:39:33;3.08;;;2.22;;
15342;SDS011;7771;48.478;8.936;2023-07-20T00:42:01;4.87;;;1.92;;
15342;SDS011;7771;48.478;8.936;2023-07-20T00:44:29;2.85;;;2.35;;
15342;SDS011;7771;48.478;8.936;2023-07-20T00:46:57;2.05;;;1.85;;
15342;SDS011;7771;48.478;8.936;2023-07-20T00:49:25;4.55;;;2.30;;
15342;SDS011;7771;48.478;8.936;2023-07-20T00:51:52;4.00;;;2.10;;
15342;SDS011;7771;48.478;8.936;2023-07-20T00:54:19;5.05;;;2.15;;
15342;SDS011;7771;48.478;8.936;2023-07-20T00:56:47;4.95;;;2.42;;
15342;SDS011;7771;48.478;8.936;2023-07-20T00:59:13;3.97;;;2.40;;
15342;SDS011;7771;48.478;8.936;2023-07-20T01:01:41;3.60;;;2.20;;
15342;SDS011;7771;48.478;8.936;2023-07-20T01:04:09;4.62;;;2.10;;
15342;SDS011;7771;48.478;8.936;2023-07-20T01:06:37;4.00;;;2.25;;
15342;SDS011;7771;48.478;8.936;2023-07-20T01:09:13;3.50;;;2.00;;
15342;SDS011;7771;48.478;8.936;2023-07-20T01:11:38;4.40;;;2.20;;
15342;SDS011;7771;48.478;8.936;2023-07-20T01:14:04;3.20;;;2.35;;
15342;SDS011;7771;48.478;8.936;2023-07-20T01:16:30;6.35;;;2.45;;
15342;SDS011;7771;48.478;8.936;2023-07-20T01:18:57;3.22;;;2.22;;
15342;SDS011;7771;48.478;8.936;2023-07-20T01:21:26;4.93;;;2.33;;
15342;SDS011;7771;48.478;8.936;2023-07-20T01:23:58;3.35;;;2.62;;
15342;SDS011;7771;48.478;8.936;2023-07-20T01:26:47;5.00;;;2.50;;
15342;SDS011;7771;48.478;8.936;2023-07-20T01:29:30;5.65;;;2.60;;
15342;SDS011;7771;48.478;8.936;2023-07-20T01:31:59;3.25;;;2.12;;
15342;SDS011;7771;48.478;8.936;2023-07-20T01:34:25;5.18;;;2.78;;
15342;SDS011;7771;48.478;8.936;2023-07-20T01:36:52;3.83;;;2.50;;
15342;SDS011;7771;48.478;8.936;2023-07-20T01:39:19;4.07;;;2.60;;
15342;SDS011;7771;48.478;8.936;2023-07-20T01:41:46;4.03;;;2.87;;
15342;SDS011;7771;48.478;8.936;2023-07-20T01:44:13;2.87;;;2.17;;
15342;SDS011;7771;48.478;8.936;2023-07-20T01:46:40;3.95;;;2.90;;
15342;SDS011;7771;48.478;8.936;2023-07-20T01:49:07;3.62;;;2.70;;
15342;SDS011;7771;48.478;8.936;2023-07-20T01:51:35;5.07;;;2.45;;
15342;SDS011;7771;48.478;8.936;2023-07-20T01:54:03;4.28;;;2.40;;
15342;SDS011;7771;48.478;8.936;2023-07-20T01:56:29;4.78;;;2.25;;
15342;SDS011;7771;48.478;8.936;2023-07-20T01:58:56;4.53;;;2.78;;
15342;SDS011;7771;48.478;8.936;2023-07-20T02:01:23;5.35;;;2.42;;
15342;SDS011;7771;48.478;8.936;2023-07-20T02:03:50;3.25;;;2.30;;
15342;SDS011;7771;48.478;8.936;2023-07-20T02:06:17;3.60;;;2.78;;
15342;SDS011;7771;48.478;8.936;2023-07-20T02:08:45;3.45;;;2.83;;
15342;SDS011;7771;48.478;8.936;2023-07-20T02:11:12;4.35;;;3.35;;
15342;SDS011;7771;48.478;8.936;2023-07-20T02:13:40;2.50;;;2.30;;
15342;SDS011;7771;48.478;8.936;2023-07-20T02:16:06;4.20;;;2.62;;
15342;SDS011;7771;48.478;8.936;2023-07-20T02:18:35;2.85;;;2.55;;
15342;SDS011;7771;48.478;8.936;2023-07-20T02:21:02;2.83;;;2.60;;
15342;SDS011;7771;48.478;8.936;2023-07-20T02:23:30;4.07;;;2.70;;
15342;SDS011;7771;48.478;8.936;2023-07-20T02:25:58;3.30;;;2.40;;
15342;SDS011;7771;48.478;8.936;2023-07-20T02:28:26;3.30;;;2.50;;
15342;SDS011;7771;48.478;8.936;2023-07-20T02:30:53;3.83;;;2.70;;
15342;SDS011;7771;48.478;8.936;2023-07-20T02:33:20;3.92;;;3.00;;
15342;SDS011;7771;48.478;8.936;2023-07-20T02:35:48;3.45;;;2.62;;
15342;SDS011;7771;48.478;8.936;2023-07-20T02:38:15;6.62;;;2.72;;
15342;SDS011;7771;48.478;8.936;2023-07-20T02:40:42;4.82;;;2.97;;
15342;SDS011;7771;48.478;8.936;2023-07-20T02:43:09;3.25;;;2.40;;
15342;SDS011;7771;48.478;8.936;2023-07-20T02:45:39;4.18;;;2.80;;
15342;SDS011;7771;48.478;8.936;2023-07-20T02:48:07;5.07;;;2.58;;
15342;SDS011;7771;48.478;8.936;2023-07-20T02:50:33;3.58;;;2.55;;
15342;SDS011;7771;48.478;8.936;2023-07-20T02:53:00;4.37;;;2.97;;
15342;SDS011;7771;48.478;8.936;2023-07-20T02:55:27;5.03;;;2.70;;
15342;SDS011;7771;48.478;8.936;2023-07-20T02:57:54;4.47;;;2.78;;
15342;SDS011;7771;48.478;8.936;2023-07-20T03:00:20;4.05;;;3.00;;
15342;SDS011;7771;48.478;8.936;2023-07-20T03:02:49;3.67;;;2.62;;
15342;SDS011;7771;48.478;8.936;2023-07-20T03:05:16;5.57;;;2.58;;
15342;SDS011;7771;48.478;8.936;2023-07-20T03:07:42;3.00;;;2.50;;
15342;SDS011;7771;48.478;8.936;2023-07-20T03:10:09;2.95;;;2.60;;
15342;SDS011;7771;48.478;8.936;2023-07-20T03:12:36;3.75;;;2.53;;
15342;SDS011;7771;48.478;8.936;2023-07-20T03:15:02;3.58;;;2.70;;
15342;SDS011;7771;48.478;8.936;2023-07-20T03:17:30;6.87;;;2.80;;
15342;SDS011;7771;48.478;8.936;2023-07-20T03:19:56;3.20;;;2.67;;
15342;SDS011;7771;48.478;8.936;2023-07-20T03:22:23;3.10;;;2.30;;
15342;SDS011;7771;48.478;8.936;2023-07-20T03:24:52;3.15;;;2.42;;
15342;SDS011;7771;48.478;8.936;2023-07-20T03:27:18;5.60;;;2.62;;
15342;SDS011;7771;48.478;8.936;2023-07-20T03:29:45;5.20;;;2.75;;
15342;SDS011;7771;48.478;8.936;2023-07-20T03:32:12;6.28;;;2.90;;
15342;SDS011;7771;48.478;8.936;2023-07-20T03:34:39;4.70;;;2.70;;
15342;SDS011;7771;48.478;8.936;2023-07-20T03:37:07;6.73;;;2.60;;
15342;SDS011;7771;48.478;8.936;2023-07-20T03:39:33;4.37;;;2.70;;
15342;SDS011;7771;48.478;8.936;2023-07-20T03:42:02;3.65;;;2.60;;
15342;SDS011;7771;48.478;8.936;2023-07-20T03:44:30;5.53;;;2.97;;
15342;SDS011;7771;48.478;8.936;2023-07-20T03:46:56;3.17;;;2.40;;
15342;SDS011;7771;48.478;8.936;2023-07-20T03:49:23;3.57;;;2.90;;
15342;SDS011;7771;48.478;8.936;2023-07-20T03:51:51;3.80;;;2.60;;
15342;SDS011;7771;48.478;8.936;2023-07-20T03:54:18;4.45;;;2.95;;
15342;SDS011;7771;48.478;8.936;2023-07-20T03:56:45;6.18;;;2.58;;
15342;SDS011;7771;48.478;8.936;2023-07-20T03:59:12;3.30;;;2.63;;
15342;SDS011;7771;48.478;8.936;2023-07-20T04:01:39;4.80;;;3.13;;
15342;SDS011;7771;48.478;8.936;2023-07-20T04:04:07;5.53;;;2.83;;
15342;SDS011;7771;48.478;8.936;2023-07-20T04:06:32;6.10;;;3.47;;
15342;SDS011;7771;48.478;8.936;2023-07-20T04:08:59;4.67;;;2.97;;
15342;SDS011;7771;48.478;8.936;2023-07-20T04:11:27;3.47;;;2.80;;
15342;SDS011;7771;48.478;8.936;2023-07-20T04:13:54;6.83;;;3.27;;
15342;SDS011;7771;48.478;8.936;2023-07-20T04:16:21;4.10;;;3.03;;
15342;SDS011;7771;48.478;8.936;2023-07-20T04:18:48;4.47;;;3.27;;
15342;SDS011;7771;48.478;8.936;2023-07-20T04:21:15;4.10;;;3.23;;
15342;SDS011;7771;48.478;8.936;2023-07-20T04:23:42;5.33;;;3.30;;
15342;SDS011;7771;48.478;8.936;2023-07-20T04:26:09;7.43;;;3.10;;
15342;SDS011;7771;48.478;8.936;2023-07-20T04:28:36;3.10;;;2.77;;
15342;SDS011;7771;48.478;8.936;2023-07-20T04:31:10;3.63;;;2.90;;
15342;SDS011;7771;48.478;8.936;2023-07-20T04:33:37;4.97;;;2.90;;
15342;SDS011;7771;48.478;8.936;2023-07-20T04:36:03;4.27;;;3.07;;
15342;SDS011;7771;48.478;8.936;2023-07-20T04:38:30;3.87;;;3.07;;
15342;SDS011;7771;48.478;8.936;2023-07-20T04:40:57;5.00;;;2.77;;
15342;SDS011;7771;48.478;8.936;2023-07-20T04:43:24;4.37;;;3.13;;
15342;SDS011;7771;48.478;8.936;2023-07-20T04:45:50;4.70;;;2.80;;
15342;SDS011;7771;48.478;8.936;2023-07-20T04:48:17;6.03;;;3.20;;
15342;SDS011;7771;48.478;8.936;2023-07-20T04:50:44;5.33;;;2.67;;
15342;SDS011;7771;48.478;8.936;2023-07-20T04:53:12;6.57;;;3.20;;
15342;SDS011;7771;48.478;8.936;2023-07-20T04:55:39;6.10;;;2.77;;
15342;SDS011;7771;48.478;8.936;2023-07-20T04:58:07;5.40;;;3.22;;
15342;SDS011;7771;48.478;8.936;2023-07-20T05:00:33;6.10;;;3.22;;
15342;SDS011;7771;48.478;8.936;2023-07-20T05:03:00;3.90;;;3.20;;
15342;SDS011;7771;48.478;8.936;2023-07-20T05:05:28;4.53;;;3.05;;
15342;SDS011;7771;48.478;8.936;2023-07-20T05:07:56;5.00;;;2.80;;
15342;SDS011;7771;48.478;8.936;2023-07-20T05:10:23;3.67;;;2.73;;
15342;SDS011;7771;48.478;8.936;2023-07-20T05:12:50;6.15;;;2.83;;
15342;SDS011;7771;48.478;8.936;2023-07-20T05:15:19;6.97;;;3.15;;
15342;SDS011;7771;48.478;8.936;2023-07-20T05:17:45;3.10;;;2.80;;
15342;SDS011;7771;48.478;8.936;2023-07-20T05:20:12;6.20;;;3.20;;
15342;SDS011;7771;48.478;8.936;2023-07-20T05:22:39;4.15;;;2.87;;
15342;SDS011;7771;48.478;8.936;2023-07-20T05:25:07;6.53;;;3.60;;
15342;SDS011;7771;48.478;8.936;2023-07-20T05:27:35;9.98;;;3.37;;
15342;SDS011;7771;48.478;8.936;2023-07-20T05:30:03;5.85;;;2.92;;
15342;SDS011;7771;48.478;8.936;2023-07-20T05:32:31;4.93;;;2.90;;
15342;SDS011;7771;48.478;8.936;2023-07-20T05:34:59;5.50;;;2.87;;
15342;SDS011;7771;48.478;8.936;2023-07-20T05:37:26;4.40;;;2.90;;
15342;SDS011;7771;48.478;8.936;2023-07-20T05:39:53;7.28;;;2.85;;
15342;SDS011;7771;48.478;8.936;2023-07-20T05:42:20;6.78;;;3.90;;
15342;SDS011;7771;48.478;8.936;2023-07-20T05:44:48;3.03;;;2.42;;
15342;SDS011;7771;48.478;8.936;2023-07-20T05:47:16;3.00;;;2.70;;
15342;SDS011;7771;48.478;8.936;2023-07-20T05:49:42;3.78;;;2.92;;
15342;SDS011;7771;48.478;8.936;2023-07-20T05:52:10;5.05;;;4.00;;
15342;SDS011;7771;48.478;8.936;2023-07-20T05:54:38;4.72;;;3.42;;
15342;SDS011;7771;48.478;8.936;2023-07-20T05:57:06;4.80;;;2.90;;
15342;SDS011;7771;48.478;8.936;2023-07-20T05:59:33;4.47;;;3.08;;
15342;SDS011;7771;48.478;8.936;2023-07-20T06:02:00;5.57;;;3.53;;
15342;SDS011;7771;48.478;8.936;2023-07-20T06:04:28;3.83;;;2.92;;
15342;SDS011;7771;48.478;8.936;2023-07-20T06:06:57;7.03;;;3.20;;
15342;SDS011;7771;48.478;8.936;2023-07-20T06:09:23;5.70;;;3.25;;
15342;SDS011;7771;48.478;8.936;2023-07-20T06:11:52;3.67;;;3.37;;
15342;SDS011;7771;48.478;8.936;2023-07-20T06:14:19;6.75;;;3.15;;
15342;SDS011;7771;48.478;8.936;2023-07-20T06:16:45;5.68;;;3.62;;
15342;SDS011;7771;48.478;8.936;2023-07-20T06:19:13;6.05;;;3.10;;
15342;SDS011;7771;48.478;8.936;2023-07-20T06:21:41;4.78;;;3.03;;
15342;SDS011;7771;48.478;8.936;2023-07-20T06:24:08;5.22;;;3.12;;
15342;SDS011;7771;48.478;8.936;2023-07-20T06:26:35;5.03;;;3.25;;
15342;SDS011;7771;48.478;8.936;2023-07-20T06:29:03;7.32;;;3.50;;
15342;SDS011;7771;48.478;8.936;2023-07-20T06:31:30;4.72;;;3.30;;
15342;SDS011;7771;48.478;8.936;2023-07-20T06:33:57;4.72;;;3.20;;
15342;SDS011;7771;48.478;8.936;2023-07-20T06:36:24;6.00;;;3.45;;
15342;SDS011;7771;48.478;8.936;2023-07-20T06:38:52;5.85;;;3.72;;
15342;SDS011;7771;48.478;8.936;2023-07-20T06:41:20;5.43;;;2.95;;
15342;SDS011;7771;48.478;8.936;2023-07-20T06:43:46;4.70;;;3.25;;
15342;SDS011;7771;48.478;8.936;2023-07-20T06:46:14;3.90;;;2.80;;
15342;SDS011;7771;48.478;8.936;2023-07-20T06:48:40;6.07;;;3.22;;
15342;SDS011;7771;48.478;8.936;2023-07-20T06:51:08;4.65;;;2.78;;
15342;SDS011;7771;48.478;8.936;2023-07-20T06:53:34;4.03;;;3.08;;
15342;SDS011;7771;48.478;8.936;2023-07-20T06:56:02;7.47;;;3.58;;
15342;SDS011;7771;48.478;8.936;2023-07-20T06:58:29;7.53;;;3.42;;
15342;SDS011;7771;48.478;8.936;2023-07-20T07:00:56;7.87;;;3.80;;
15342;SDS011;7771;48.478;8.936;2023-07-20T07:03:23;5.45;;;3.50;;
15342;SDS011;7771;48.478;8.936;2023-07-20T07:05:49;3.85;;;2.75;;
15342;SDS011;7771;48.478;8.936;2023-07-20T07:08:17;3.55;;;2.92;;
15342;SDS011;7771;48.478;8.936;2023-07-20T07:10:46;5.75;;;3.00;;
15342;SDS011;7771;48.478;8.936;2023-07-20T07:13:12;3.95;;;3.17;;
15342;SDS011;7771;48.478;8.936;2023-07-20T07:15:39;10.40;;;3.15;;
15342;SDS011;7771;48.478;8.936;2023-07-20T07:18:05;3.03;;;2.65;;
15342;SDS011;7771;48.478;8.936;2023-07-20T07:20:34;3.95;;;2.65;;
15342;SDS011;7771;48.478;8.936;2023-07-20T07:23:00;6.32;;;3.10;;
15342;SDS011;7771;48.478;8.936;2023-07-20T07:25:27;4.35;;;2.22;;
15342;SDS011;7771;48.478;8.936;2023-07-20T07:27:54;5.95;;;2.75;;
15342;SDS011;7771;48.478;8.936;2023-07-20T07:30:21;3.95;;;2.78;;
15342;SDS011;7771;48.478;8.936;2023-07-20T07:32:48;6.68;;;2.45;;
15342;SDS011;7771;48.478;8.936;2023-07-20T07:35:16;5.30;;;3.10;;
15342;SDS011;7771;48.478;8.936;2023-07-20T07:37:44;3.25;;;2.17;;
15342;SDS011;7771;48.478;8.936;2023-07-20T07:40:10;4.82;;;2.70;;
15342;SDS011;7771;48.478;8.936;2023-07-20T07:42:38;4.28;;;2.50;;
15342;SDS011;7771;48.478;8.936;2023-07-20T07:45:06;2.58;;;2.30;;
15342;SDS011;7771;48.478;8.936;2023-07-20T07:47:33;9.00;;;3.72;;
15342;SDS011;7771;48.478;8.936;2023-07-20T07:50:00;3.12;;;2.50;;
15342;SDS011;7771;48.478;8.936;2023-07-20T07:52:28;3.92;;;2.53;;
15342;SDS011;7771;48.478;8.936;2023-07-20T07:54:55;4.32;;;2.60;;
15342;SDS011;7771;48.478;8.936;2023-07-20T07:57:21;3.35;;;2.15;;
15342;SDS011;7771;48.478;8.936;2023-07-20T07:59:48;4.55;;;2.70;;
15342;SDS011;7771;48.478;8.936;2023-07-20T08:02:15;3.65;;;2.53;;
15342;SDS011;7771;48.478;8.936;2023-07-20T08:04:42;4.18;;;2.83;;
15342;SDS011;7771;48.478;8.936;2023-07-20T08:07:09;7.15;;;2.78;;
15342;SDS011;7771;48.478;8.936;2023-07-20T08:09:36;4.47;;;2.42;;
15342;SDS011;7771;48.478;8.936;2023-07-20T08:12:03;9.65;;;2.83;;
15342;SDS011;7771;48.478;8.936;2023-07-20T08:14:31;4.12;;;2.62;;
15342;SDS011;7771;48.478;8.936;2023-07-20T08:16:57;6.03;;;2.70;;
15342;SDS011;7771;48.478;8.936;2023-07-20T08:19:24;5.40;;;2.47;;
15342;SDS011;7771;48.478;8.936;2023-07-20T08:21:52;5.43;;;2.30;;
15342;SDS011;7771;48.478;8.936;2023-07-20T08:24:19;3.47;;;2.47;;
15342;SDS011;7771;48.478;8.936;2023-07-20T08:26:48;7.22;;;3.97;;
15342;SDS011;7771;48.478;8.936;2023-07-20T08:29:14;13.62;;;7.03;;
15342;SDS011;7771;48.478;8.936;2023-07-20T08:31:41;6.35;;;3.40;;
15342;SDS011;7771;48.478;8.936;2023-07-20T08:34:08;3.12;;;1.85;;
15342;SDS011;7771;48.478;8.936;2023-07-20T08:36:34;4.07;;;2.47;;
15342;SDS011;7771;48.478;8.936;2023-07-20T08:39:01;5.80;;;2.70;;
15342;SDS011;7771;48.478;8.936;2023-07-20T08:41:27;3.80;;;2.28;;
15342;SDS011;7771;48.478;8.936;2023-07-20T08:43:54;2.60;;;2.28;;
15342;SDS011;7771;48.478;8.936;2023-07-20T08:46:21;4.55;;;2.28;;
15342;SDS011;7771;48.478;8.936;2023-07-20T08:48:48;4.78;;;2.62;;
15342;SDS011;7771;48.478;8.936;2023-07-20T08:51:15;2.42;;;2.10;;
15342;SDS011;7771;48.478;8.936;2023-07-20T08:53:42;3.72;;;2.20;;
15342;SDS011;7771;48.478;8.936;2023-07-20T08:56:09;2.80;;;2.17;;
15342;SDS011;7771;48.478;8.936;2023-07-20T08:58:36;6.10;;;2.05;;
15342;SDS011;7771;48.478;8.936;2023-07-20T09:01:04;2.78;;;2.08;;
15342;SDS011;7771;48.478;8.936;2023-07-20T09:03:31;4.10;;;2.22;;
15342;SDS011;7771;48.478;8.936;2023-07-20T09:05:58;3.65;;;1.77;;
15342;SDS011;7771;48.478;8.936;2023-07-20T09:08:26;3.55;;;1.83;;
15342;SDS011;7771;48.478;8.936;2023-07-20T09:10:53;2.28;;;1.75;;
15342;SDS011;7771;48.478;8.936;2023-07-20T09:13:20;3.78;;;1.62;;
15342;SDS011;7771;48.478;8.936;2023-07-20T09:15:48;3.15;;;1.70;;
15342;SDS011;7771;48.478;8.936;2023-07-20T09:18:23;2.65;;;1.70;;
15342;SDS011;7771;48.478;8.936;2023-07-20T09:20:41;4.47;;;1.60;;
15342;SDS011;7771;48.478;8.936;2023-07-20T09:23:08;2.87;;;1.85;;
15342;SDS011;7771;48.478;8.936;2023-07-20T09:25:35;3.92;;;1.90;;
15342;SDS011;7771;48.478;8.936;2023-07-20T09:28:02;4.30;;;1.92;;
15342;SDS011;7771;48.478;8.936;2023-07-20T09:30:29;5.30;;;1.95;;
15342;SDS011;7771;48.478;8.936;2023-07-20T09:32:56;3.25;;;1.50;;
15342;SDS011;7771;48.478;8.936;2023-07-20T09:35:24;1.90;;;1.67;;
15342;SDS011;7771;48.478;8.936;2023-07-20T09:37:55;2.60;;;1.95;;
15342;SDS011;7771;48.478;8.936;2023-07-20T09:40:25;3.03;;;2.15;;
15342;SDS011;7771;48.478;8.936;2023-07-20T09:42:53;4.47;;;2.25;;
15342;SDS011;7771;48.478;8.936;2023-07-20T09:45:19;2.45;;;1.55;;
15342;SDS011;7771;48.478;8.936;2023-07-20T09:47:46;2.10;;;1.70;;
15342;SDS011;7771;48.478;8.936;2023-07-20T09:50:14;1.90;;;1.60;;
15342;SDS011;7771;48.478;8.936;2023-07-20T09:52:41;2.60;;;1.40;;
15342;SDS011;7771;48.478;8.936;2023-07-20T09:55:08;4.22;;;1.90;;
15342;SDS011;7771;48.478;8.936;2023-07-20T09:57:35;2.40;;;1.65;;
15342;SDS011;7771;48.478;8.936;2023-07-20T10:00:03;2.22;;;1.50;;
15342;SDS011;7771;48.478;8.936;2023-07-20T10:02:32;2.62;;;1.45;;
15342;SDS011;7771;48.478;8.936;2023-07-20T10:04:57;3.08;;;1.50;;
15342;SDS011;7771;48.478;8.936;2023-07-20T10:07:24;3.45;;;1.70;;
15342;SDS011;7771;48.478;8.936;2023-07-20T10:09:51;3.05;;;1.70;;
15342;SDS011;7771;48.478;8.936;2023-07-20T10:12:18;3.85;;;1.75;;
15342;SDS011;7771;48.478;8.936;2023-07-20T10:14:51;3.45;;;1.85;;
15342;SDS011;7771;48.478;8.936;2023-07-20T10:17:12;4.57;;;1.58;;
15342;SDS011;7771;48.478;8.936;2023-07-20T10:19:42;2.35;;;1.45;;
15342;SDS011;7771;48.478;8.936;2023-07-20T10:22:12;4.55;;;1.92;;
15342;SDS011;7771;48.478;8.936;2023-07-20T10:24:38;2.83;;;1.48;;
15342;SDS011;7771;48.478;8.936;2023-07-20T10:27:05;1.80;;;1.70;;
15342;SDS011;7771;48.478;8.936;2023-07-20T10:29:32;1.80;;;1.40;;
15342;SDS011;7771;48.478;8.936;2023-07-20T10:31:59;2.78;;;1.67;;
15342;SDS011;7771;48.478;8.936;2023-07-20T10:34:26;3.25;;;1.33;;
15342;SDS011;7771;48.478;8.936;2023-07-20T10:36:54;6.28;;;1.35;;
15342;SDS011;7771;48.478;8.936;2023-07-20T10:39:22;3.87;;;1.80;;
15342;SDS011;7771;48.478;8.936;2023-07-20T10:41:49;4.85;;;1.65;;
15342;SDS011;7771;48.478;8.936;2023-07-20T10:44:19;2.10;;;1.67;;
15342;SDS011;7771;48.478;8.936;2023-07-20T10:46:45;3.80;;;2.17;;
15342;SDS011;7771;48.478;8.936;2023-07-20T10:49:12;1.98;;;1.48;;
15342;SDS011;7771;48.478;8.936;2023-07-20T10:51:40;2.78;;;1.50;;
15342;SDS011;7771;48.478;8.936;2023-07-20T10:56:58;3.75;;;1.60;;
15342;SDS011;7771;48.478;8.936;2023-07-20T11:02:09;3.53;;;2.12;;
15342;SDS011;7771;48.478;8.936;2023-07-20T11:04:38;2.70;;;1.25;;
15342;SDS011;7771;48.478;8.936;2023-07-20T11:07:05;3.35;;;1.90;;
15342;SDS011;7771;48.478;8.936;2023-07-20T11:09:34;3.15;;;1.37;;
15342;SDS011;7771;48.478;8.936;2023-07-20T11:14:39;1.77;;;1.37;;
15342;SDS011;7771;48.478;8.936;2023-07-20T11:17:11;2.17;;;1.65;;
15342;SDS011;7771;48.478;8.936;2023-07-20T11:19:36;2.70;;;1.85;;
15342;SDS011;7771;48.478;8.936;2023-07-20T11:22:04;4.20;;;2.40;;
15342;SDS011;7771;48.478;8.936;2023-07-20T11:24:33;3.42;;;1.52;;
15342;SDS011;7771;48.478;8.936;2023-07-20T11:26:59;4.28;;;1.60;;
15342;SDS011;7771;48.478;8.936;2023-07-20T11:29:26;3.47;;;1.48;;
15342;SDS011;7771;48.478;8.936;2023-07-20T11:31:52;1.52;;;1.42;;
15342;SDS011;7771;48.478;8.936;2023-07-20T11:34:20;3.80;;;1.50;;
15342;SDS011;7771;48.478;8.936;2023-07-20T11:36:47;2.25;;;1.75;;
15342;SDS011;7771;48.478;8.936;2023-07-20T11:39:14;2.97;;;2.10;;
15342;SDS011;7771;48.478;8.936;2023-07-20T11:41:46;3.08;;;1.77;;
15342;SDS011;7771;48.478;8.936;2023-07-20T11:44:12;3.12;;;1.80;;
15342;SDS011;7771;48.478;8.936;2023-07-20T11:46:39;2.22;;;1.62;;
15342;SDS011;7771;48.478;8.936;2023-07-20T11:49:06;2.97;;;1.92;;
15342;SDS011;7771;48.478;8.936;2023-07-20T11:51:33;1.80;;;1.60;;
15342;SDS011;7771;48.478;8.936;2023-07-20T11:54:00;3.10;;;1.67;;
15342;SDS011;7771;48.478;8.936;2023-07-20T11:56:26;3.97;;;1.65;;
15342;SDS011;7771;48.478;8.936;2023-07-20T11:58:55;4.82;;;1.55;;
15342;SDS011;7771;48.478;8.936;2023-07-20T12:01:23;2.17;;;1.55;;
15342;SDS011;7771;48.478;8.936;2023-07-20T12:03:48;3.15;;;1.60;;
15342;SDS011;7771;48.478;8.936;2023-07-20T12:06:14;2.83;;;1.67;;
15342;SDS011;7771;48.478;8.936;2023-07-20T12:08:42;3.50;;;1.35;;
15342;SDS011;7771;48.478;8.936;2023-07-20T12:11:08;3.30;;;1.67;;
15342;SDS011;7771;48.478;8.936;2023-07-20T12:13:38;3.55;;;1.48;;
15342;SDS011;7771;48.478;8.936;2023-07-20T12:16:09;4.47;;;2.03;;
15342;SDS011;7771;48.478;8.936;2023-07-20T12:18:36;1.77;;;1.25;;
15342;SDS011;7771;48.478;8.936;2023-07-20T12:21:05;1.95;;;1.60;;
15342;SDS011;7771;48.478;8.936;2023-07-20T12:23:35;2.00;;;1.52;;
15342;SDS011;7771;48.478;8.936;2023-07-20T12:26:03;2.42;;;1.48;;
15342;SDS011;7771;48.478;8.936;2023-07-20T12:28:31;1.70;;;1.33;;
15342;SDS011;7771;48.478;8.936;2023-07-20T12:30:57;2.42;;;1.48;;
15342;SDS011;7771;48.478;8.936;2023-07-20T12:33:25;2.78;;;1.58;;
15342;SDS011;7771;48.478;8.936;2023-07-20T12:35:52;2.15;;;1.20;;
15342;SDS011;7771;48.478;8.936;2023-07-20T12:38:19;2.92;;;1.62;;
15342;SDS011;7771;48.478;8.936;2023-07-20T12:40:47;1.67;;;1.45;;
15342;SDS011;7771;48.478;8.936;2023-07-20T12:43:14;2.03;;;1.30;;
15342;SDS011;7771;48.478;8.936;2023-07-20T12:45:41;2.12;;;1.33;;
15342;SDS011;7771;48.478;8.936;2023-07-20T12:48:08;1.48;;;1.23;;
15342;SDS011;7771;48.478;8.936;2023-07-20T12:50:35;2.97;;;1.40;;
15342;SDS011;7771;48.478;8.936;2023-07-20T12:53:02;3.00;;;1.33;;
15342;SDS011;7771;48.478;8.936;2023-07-20T12:55:29;2.40;;;1.30;;
15342;SDS011;7771;48.478;8.936;2023-07-20T12:57:56;3.80;;;1.50;;
15342;SDS011;7771;48.478;8.936;2023-07-20T13:00:23;1.75;;;1.17;;
15342;SDS011;7771;48.478;8.936;2023-07-20T13:02:50;3.65;;;1.40;;
15342;SDS011;7771;48.478;8.936;2023-07-20T13:05:17;2.15;;;1.20;;
15342;SDS011;7771;48.478;8.936;2023-07-20T13:07:44;2.28;;;1.25;;
15342;SDS011;7771;48.478;8.936;2023-07-20T13:10:11;3.50;;;1.65;;
15342;SDS011;7771;48.478;8.936;2023-07-20T13:12:39;1.20;;;1.10;;
15342;SDS011;7771;48.478;8.936;2023-07-20T13:15:07;2.45;;;1.45;;
15342;SDS011;7771;48.478;8.936;2023-07-20T13:17:34;4.40;;;1.50;;
15342;SDS011;7771;48.478;8.936;2023-07-20T13:20:01;2.37;;;1.90;;
15342;SDS011;7771;48.478;8.936;2023-07-20T13:22:27;2.60;;;1.10;;
15342;SDS011;7771;48.478;8.936;2023-07-20T13:24:56;1.98;;;1.42;;
15342;SDS011;7771;48.478;8.936;2023-07-20T13:27:22;1.62;;;1.30;;
15342;SDS011;7771;48.478;8.936;2023-07-20T13:29:50;2.12;;;1.30;;
15342;SDS011;7771;48.478;8.936;2023-07-20T13:32:16;2.90;;;1.45;;
15342;SDS011;7771;48.478;8.936;2023-07-20T13:34:44;2.35;;;1.55;;
15342;SDS011;7771;48.478;8.936;2023-07-20T13:37:12;3.05;;;1.37;;
15342;SDS011;7771;48.478;8.936;2023-07-20T13:39:38;2.22;;;1.27;;
15342;SDS011;7771;48.478;8.936;2023-07-20T13:42:06;1.92;;;1.30;;
15342;SDS011;7771;48.478;8.936;2023-07-20T13:44:34;4.37;;;1.55;;
15342;SDS011;7771;48.478;8.936;2023-07-20T13:47:00;1.48;;;1.30;;
15342;SDS011;7771;48.478;8.936;2023-07-20T13:49:28;1.98;;;1.27;;
15342;SDS011;7771;48.478;8.936;2023-07-20T13:51:55;1.60;;;1.50;;
15342;SDS011;7771;48.478;8.936;2023-07-20T13:54:23;1.85;;;1.20;;
15342;SDS011;7771;48.478;8.936;2023-07-20T13:59:26;2.85;;;1.30;;
15342;SDS011;7771;48.478;8.936;2023-07-20T14:01:53;1.70;;;1.33;;
15342;SDS011;7771;48.478;8.936;2023-07-20T14:04:21;2.37;;;1.60;;
15342;SDS011;7771;48.478;8.936;2023-07-20T14:06:49;1.60;;;1.25;;
15342;SDS011;7771;48.478;8.936;2023-07-20T14:09:15;3.78;;;1.65;;
15342;SDS011;7771;48.478;8.936;2023-07-20T14:11:43;3.22;;;1.30;;
15342;SDS011;7771;48.478;8.936;2023-07-20T14:14:10;3.28;;;1.40;;
15342;SDS011;7771;48.478;8.936;2023-07-20T14:16:37;5.00;;;1.67;;
15342;SDS011;7771;48.478;8.936;2023-07-20T14:19:03;3.80;;;1.42;;
15342;SDS011;7771;48.478;8.936;2023-07-20T14:21:30;2.53;;;1.48;;
15342;SDS011;7771;48.478;8.936;2023-07-20T14:23:57;5.82;;;1.90;;
15342;SDS011;7771;48.478;8.936;2023-07-20T14:26:24;3.62;;;1.73;;
15342;SDS011;7771;48.478;8.936;2023-07-20T14:28:50;2.10;;;1.70;;
15342;SDS011;7771;48.478;8.936;2023-07-20T14:31:17;7.85;;;1.77;;
15342;SDS011;7771;48.478;8.936;2023-07-20T14:33:44;3.58;;;1.42;;
15342;SDS011;7771;48.478;8.936;2023-07-20T14:36:12;3.22;;;1.70;;
15342;SDS011;7771;48.478;8.936;2023-07-20T14:38:38;3.72;;;1.85;;
15342;SDS011;7771;48.478;8.936;2023-07-20T14:41:06;2.55;;;1.70;;
15342;SDS011;7771;48.478;8.936;2023-07-20T14:43:34;2.35;;;1.30;;
15342;SDS011;7771;48.478;8.936;2023-07-20T14:46:01;3.55;;;1.83;;
15342;SDS011;7771;48.478;8.936;2023-07-20T14:48:28;1.73;;;1.52;;
15342;SDS011;7771;48.478;8.936;2023-07-20T14:50:56;4.50;;;1.45;;
15342;SDS011;7771;48.478;8.936;2023-07-20T14:53:22;2.97;;;1.60;;
15342;SDS011;7771;48.478;8.936;2023-07-20T14:55:50;7.65;;;1.73;;
15342;SDS011;7771;48.478;8.936;2023-07-20T14:58:19;2.75;;;1.50;;
15342;SDS011;7771;48.478;8.936;2023-07-20T15:00:45;1.67;;;1.35;;
15342;SDS011;7771;48.478;8.936;2023-07-20T15:03:13;2.80;;;1.35;;
15342;SDS011;7771;48.478;8.936;2023-07-20T15:05:41;1.87;;;1.35;;
15342;SDS011;7771;48.478;8.936;2023-07-20T15:08:07;2.05;;;1.60;;
15342;SDS011;7771;48.478;8.936;2023-07-20T15:10:35;2.92;;;1.42;;